sensor_id;sensor_type;location;lat;lon;timestamp;P1;P2;P0
51320;PMS5003;38732;49.556;6.286;2022-11-04T00:02:11;7.50;6.00;3.00
51320;PMS5003;38732;49.556;6.286;2022-11-04T00:04:39;5.25;3.50;2.00
51320;PMS5003;38732;49.556;6.286;2022-11-04T00:07:07;3.50;3.50;2.00
51320;PMS5003;38732;49.556;6.286;2022-11-04T00:09:36;7.25;6.50;4.25
51320;PMS5003;38732;49.556;6.286;2022-11-04T00:12:04;6.25;5.75;3.00
51320;PMS5003;38732;49.556;6.286;2022-11-04T00:14:33;5.00;4.50;2.75
51320;PMS5003;38732;49.556;6.286;2022-11-04T00:17:02;4.60;4.60;2.80
51320;PMS5003;38732;49.556;6.286;2022-11-04T00:19:31;5.40;5.20;3.00
51320;PMS5003;38732;49.556;6.286;2022-11-04T00:21:59;5.00;2.25;1.25
51320;PMS5003;38732;49.556;6.286;2022-11-04T00:24:27;5.00;5.00;3.00
51320;PMS5003;38732;49.556;6.286;2022-11-04T00:26:56;6.00;6.00;3.00
51320;PMS5003;38732;49.556;6.286;2022-11-04T00:29:25;4.80;4.80;2.20
51320;PMS5003;38732;49.556;6.286;2022-11-04T00:31:53;5.00;4.50;2.25
51320;PMS5003;38732;49.556;6.286;2022-11-04T00:34:21;7.25;4.50;2.00
51320;PMS5003;38732;49.556;6.286;2022-11-04T00:36:49;3.00;3.00;2.00
51320;PMS5003;38732;49.556;6.286;2022-11-04T00:39:18;8.00;5.75;3.00
51320;PMS5003;38732;49.556;6.286;2022-11-04T00:41:46;3.00;3.00;2.00
51320;PMS5003;38732;49.556;6.286;2022-11-04T00:44:14;6.50;4.50;2.00
51320;PMS5003;38732;49.556;6.286;2022-11-04T00:46:43;5.50;5.50;2.00
51320;PMS5003;38732;49.556;6.286;2022-11-04T00:49:11;4.50;4.50;2.75
51320;PMS5003;38732;49.556;6.286;2022-11-04T00:51:39;2.00;2.00;2.00
51320;PMS5003;38732;49.556;6.286;2022-11-04T00:54:07;6.00;4.50;2.00
51320;PMS5003;38732;49.556;6.286;2022-11-04T00:56:36;5.00;3.00;2.00
51320;PMS5003;38732;49.556;6.286;2022-11-04T00:59:05;6.40;3.80;2.00
51320;PMS5003;38732;49.556;6.286;2022-11-04T01:01:33;0.75;0.00;0.00
51320;PMS5003;38732;49.556;6.286;2022-11-04T01:04:01;5.00;5.00;2.75
51320;PMS5003;38732;49.556;6.286;2022-11-04T01:06:30;2.00;2.00;1.00
51320;PMS5003;38732;49.556;6.286;2022-11-04T01:08:59;2.75;2.75;1.00
51320;PMS5003;38732;49.556;6.286;2022-11-04T01:11:30;5.00;3.00;2.00
51320;PMS5003;38732;49.556;6.286;2022-11-04T01:13:58;5.00;3.50;2.25
51320;PMS5003;38732;49.556;6.286;2022-11-04T01:16:27;5.50;5.50;3.00
51320;PMS5003;38732;49.556;6.286;2022-11-04T01:18:55;5.00;2.50;1.00
51320;PMS5003;38732;49.556;6.286;2022-11-04T01:21:24;2.60;2.60;1.60
51320;PMS5003;38732;49.556;6.286;2022-11-04T01:23:53;5.00;5.00;2.25
51320;PMS5003;38732;49.556;6.286;2022-11-04T01:26:22;2.50;2.50;1.75
51320;PMS5003;38732;49.556;6.286;2022-11-04T01:28:52;2.80;2.80;2.00
51320;PMS5003;38732;49.556;6.286;2022-11-04T01:31:22;4.40;4.40;1.40
51320;PMS5003;38732;49.556;6.286;2022-11-04T01:33:53;5.20;4.20;2.00
51320;PMS5003;38732;49.556;6.286;2022-11-04T01:36:22;3.80;2.00;1.00
51320;PMS5003;38732;49.556;6.286;2022-11-04T01:38:53;2.60;2.60;2.00
51320;PMS5003;38732;49.556;6.286;2022-11-04T01:41:23;3.00;3.00;2.00
51320;PMS5003;38732;49.556;6.286;2022-11-04T01:43:55;5.00;5.00;1.80
51320;PMS5003;38732;49.556;6.286;2022-11-04T01:46:42;4.60;4.60;2.00
51320;PMS5003;38732;49.556;6.286;2022-11-04T01:51:50;5.00;4.60;2.00
51320;PMS5003;38732;49.556;6.286;2022-11-04T01:54:25;2.60;2.60;2.00
51320;PMS5003;38732;49.556;6.286;2022-11-04T01:56:54;8.20;8.20;3.00
51320;PMS5003;38732;49.556;6.286;2022-11-04T01:59:29;5.60;5.00;2.00
51320;PMS5003;38732;49.556;6.286;2022-11-04T02:02:03;3.40;2.80;2.00
51320;PMS5003;38732;49.556;6.286;2022-11-04T02:04:31;3.00;3.00;1.75
51320;PMS5003;38732;49.556;6.286;2022-11-04T02:07:04;5.75;2.75;2.00
51320;PMS5003;38732;49.556;6.286;2022-11-04T02:09:35;3.00;3.00;2.00
51320;PMS5003;38732;49.556;6.286;2022-11-04T02:12:05;3.00;3.00;2.00
51320;PMS5003;38732;49.556;6.286;2022-11-04T02:14:34;6.25;5.00;3.00
51320;PMS5003;38732;49.556;6.286;2022-11-04T02:28:07;5.00;3.00;2.00
51320;PMS5003;38732;49.556;6.286;2022-11-04T02:30:51;5.20;4.20;2.00
51320;PMS5003;38732;49.556;6.286;2022-11-04T02:36:01;4.60;4.60;2.20
51320;PMS5003;38732;49.556;6.286;2022-11-04T02:44:35;5.40;5.40;2.60
51320;PMS5003;38732;49.556;6.286;2022-11-04T02:47:13;3.00;3.00;2.00
51320;PMS5003;38732;49.556;6.286;2022-11-04T02:49:51;4.60;4.60;2.40
51320;PMS5003;38732;49.556;6.286;2022-11-04T02:53:28;4.20;4.00;2.40
51320;PMS5003;38732;49.556;6.286;2022-11-04T02:55:37;7.20;5.60;3.00
51320;PMS5003;38732;49.556;6.286;2022-11-04T02:58:13;8.80;7.00;5.00
51320;PMS5003;38732;49.556;6.286;2022-11-04T03:00:46;6.60;6.60;3.00
51320;PMS5003;38732;49.556;6.286;2022-11-04T03:03:19;7.00;6.00;2.60
51320;PMS5003;38732;49.556;6.286;2022-11-04T03:05:52;3.00;3.00;2.80
51320;PMS5003;38732;49.556;6.286;2022-11-04T03:08:38;3.00;3.00;2.00
51320;PMS5003;38732;49.556;6.286;2022-11-04T03:11:16;2.60;2.60;2.00
51320;PMS5003;38732;49.556;6.286;2022-11-04T03:13:55;7.00;5.60;2.20
51320;PMS5003;38732;49.556;6.286;2022-11-04T03:16:38;6.00;4.20;3.00
51320;PMS5003;38732;49.556;6.286;2022-11-04T03:22:16;5.00;5.00;3.00
51320;PMS5003;38732;49.556;6.286;2022-11-04T03:24:47;2.60;2.60;2.00
51320;PMS5003;38732;49.556;6.286;2022-11-04T03:27:19;5.00;5.00;3.00
51320;PMS5003;38732;49.556;6.286;2022-11-04T03:35:13;4.20;3.20;2.00
51320;PMS5003;38732;49.556;6.286;2022-11-04T03:37:44;2.20;2.20;1.00
51320;PMS5003;38732;49.556;6.286;2022-11-04T03:40:15;2.00;2.00;1.00
51320;PMS5003;38732;49.556;6.286;2022-11-04T03:42:57;6.00;5.00;2.00
51320;PMS5003;38732;49.556;6.286;2022-11-04T03:45:27;4.00;4.00;2.00
51320;PMS5003;38732;49.556;6.286;2022-11-04T03:47:56;3.00;3.00;2.00
51320;PMS5003;38732;49.556;6.286;2022-11-04T03:50:32;4.00;2.50;1.25
51320;PMS5003;38732;49.556;6.286;2022-11-04T03:53:06;2.60;2.60;1.20
51320;PMS5003;38732;49.556;6.286;2022-11-04T03:55:50;1.80;1.80;1.00
51320;PMS5003;38732;49.556;6.286;2022-11-04T04:01:51;6.40;3.00;2.00
51320;PMS5003;38732;49.556;6.286;2022-11-04T04:06:58;4.00;2.40;1.80
51320;PMS5003;38732;49.556;6.286;2022-11-04T04:09:45;2.20;2.20;1.20
51320;PMS5003;38732;49.556;6.286;2022-11-04T04:14:53;5.00;2.00;1.60
51320;PMS5003;38732;49.556;6.286;2022-11-04T04:20:27;2.40;2.40;1.00
51320;PMS5003;38732;49.556;6.286;2022-11-04T04:23:05;8.00;7.20;3.40
51320;PMS5003;38732;49.556;6.286;2022-11-04T04:25:44;5.00;5.00;3.00
51320;PMS5003;38732;49.556;6.286;2022-11-04T04:28:13;3.75;2.75;2.00
51320;PMS5003;38732;49.556;6.286;2022-11-04T04:30:44;5.00;2.00;2.00
51320;PMS5003;38732;49.556;6.286;2022-11-04T04:33:14;5.40;2.60;2.00
51320;PMS5003;38732;49.556;6.286;2022-11-04T04:35:47;8.80;2.80;1.20
51320;PMS5003;38732;49.556;6.286;2022-11-04T04:38:21;6.00;2.00;1.00
51320;PMS5003;38732;49.556;6.286;2022-11-04T04:41:11;4.60;3.00;1.60
51320;PMS5003;38732;49.556;6.286;2022-11-04T04:43:52;5.40;2.80;1.00
51320;PMS5003;38732;49.556;6.286;2022-11-04T04:46:21;3.00;2.00;1.00
51320;PMS5003;38732;49.556;6.286;2022-11-04T04:48:50;3.40;1.80;1.60
51320;PMS5003;38732;49.556;6.286;2022-11-04T04:51:19;4.00;4.00;1.75
51320;PMS5003;38732;49.556;6.286;2022-11-04T04:53:48;5.20;5.00;3.00
51320;PMS5003;38732;49.556;6.286;2022-11-04T04:56:17;4.75;3.50;2.00
51320;PMS5003;38732;49.556;6.286;2022-11-04T04:58:45;3.00;3.00;2.00
51320;PMS5003;38732;49.556;6.286;2022-11-04T05:01:13;4.00;4.00;2.50
51320;PMS5003;38732;49.556;6.286;2022-11-04T05:03:41;5.00;2.75;2.00
51320;PMS5003;38732;49.556;6.286;2022-11-04T05:06:09;3.50;3.50;2.50
51320;PMS5003;38732;49.556;6.286;2022-11-04T05:08:38;5.25;5.00;2.00
51320;PMS5003;38732;49.556;6.286;2022-11-04T05:11:06;5.50;5.50;4.50
51320;PMS5003;38732;49.556;6.286;2022-11-04T05:13:34;6.00;6.00;3.00
51320;PMS5003;38732;49.556;6.286;2022-11-04T05:16:07;8.50;6.50;3.00
51320;PMS5003;38732;49.556;6.286;2022-11-04T05:18:37;7.80;4.20;3.00
51320;PMS5003;38732;49.556;6.286;2022-11-04T05:21:06;6.00;6.00;4.00
51320;PMS5003;38732;49.556;6.286;2022-11-04T05:23:37;8.00;8.00;5.00
51320;PMS5003;38732;49.556;6.286;2022-11-04T05:26:05;4.00;4.00;2.25
51320;PMS5003;38732;49.556;6.286;2022-11-04T05:28:34;3.50;3.50;2.00
51320;PMS5003;38732;49.556;6.286;2022-11-04T05:31:03;2.75;2.75;2.25
51320;PMS5003;38732;49.556;6.286;2022-11-04T05:33:33;6.40;6.40;4.20
51320;PMS5003;38732;49.556;6.286;2022-11-04T05:36:04;3.50;3.50;2.25
51320;PMS5003;38732;49.556;6.286;2022-11-04T05:38:37;4.20;3.40;2.40
51320;PMS5003;38732;49.556;6.286;2022-11-04T05:41:06;6.00;4.00;2.50
51320;PMS5003;38732;49.556;6.286;2022-11-04T05:43:36;11.40;7.00;3.00
51320;PMS5003;38732;49.556;6.286;2022-11-04T05:46:04;5.00;5.00;2.75
51320;PMS5003;38732;49.556;6.286;2022-11-04T05:48:33;5.25;3.50;2.00
51320;PMS5003;38732;49.556;6.286;2022-11-04T05:51:01;6.50;5.00;2.50
51320;PMS5003;38732;49.556;6.286;2022-11-04T05:53:29;3.50;3.50;2.50
51320;PMS5003;38732;49.556;6.286;2022-11-04T05:55:57;2.75;2.75;2.00
51320;PMS5003;38732;49.556;6.286;2022-11-04T05:58:25;3.00;3.00;2.00
51320;PMS5003;38732;49.556;6.286;2022-11-04T06:00:54;7.00;6.00;3.00
51320;PMS5003;38732;49.556;6.286;2022-11-04T06:03:37;6.00;5.00;2.00
51320;PMS5003;38732;49.556;6.286;2022-11-04T06:06:05;4.50;4.00;2.00
51320;PMS5003;38732;49.556;6.286;2022-11-04T06:08:33;3.00;2.50;1.75
51320;PMS5003;38732;49.556;6.286;2022-11-04T06:11:01;5.25;5.00;3.00
51320;PMS5003;38732;49.556;6.286;2022-11-04T06:13:30;5.25;5.00;2.00
51320;PMS5003;38732;49.556;6.286;2022-11-04T06:15:58;7.25;6.25;4.00
51320;PMS5003;38732;49.556;6.286;2022-11-04T06:18:26;6.25;5.00;2.00
51320;PMS5003;38732;49.556;6.286;2022-11-04T06:23:41;5.20;5.20;2.60
51320;PMS5003;38732;49.556;6.286;2022-11-04T06:26:11;2.40;1.40;1.00
51320;PMS5003;38732;49.556;6.286;2022-11-04T06:28:39;6.00;3.00;2.00
51320;PMS5003;38732;49.556;6.286;2022-11-04T06:31:08;5.00;5.00;2.00
51320;PMS5003;38732;49.556;6.286;2022-11-04T06:33:38;5.40;3.00;2.20
51320;PMS5003;38732;49.556;6.286;2022-11-04T06:36:07;5.25;5.25;3.00
51320;PMS5003;38732;49.556;6.286;2022-11-04T06:38:38;6.80;6.20;3.00
51320;PMS5003;38732;49.556;6.286;2022-11-04T06:41:09;6.00;6.00;3.50
51320;PMS5003;38732;49.556;6.286;2022-11-04T06:43:42;6.00;5.40;4.00
51320;PMS5003;38732;49.556;6.286;2022-11-04T06:48:54;6.20;6.20;4.20
51320;PMS5003;38732;49.556;6.286;2022-11-04T06:51:23;5.80;5.80;3.00
51320;PMS5003;38732;49.556;6.286;2022-11-04T06:53:52;8.60;6.40;3.00
51320;PMS5003;38732;49.556;6.286;2022-11-04T06:56:20;7.00;6.75;3.50
51320;PMS5003;38732;49.556;6.286;2022-11-04T06:58:49;6.25;6.25;3.00
51320;PMS5003;38732;49.556;6.286;2022-11-04T07:01:19;6.60;6.60;3.00
51320;PMS5003;38732;49.556;6.286;2022-11-04T07:03:49;5.60;5.60;2.40
51320;PMS5003;38732;49.556;6.286;2022-11-04T07:06:21;3.60;3.60;2.20
51320;PMS5003;38732;49.556;6.286;2022-11-04T07:08:50;6.00;4.00;2.75
51320;PMS5003;38732;49.556;6.286;2022-11-04T07:11:20;2.60;2.00;1.00
51320;PMS5003;38732;49.556;6.286;2022-11-04T07:13:49;3.00;3.00;3.00
51320;PMS5003;38732;49.556;6.286;2022-11-04T07:16:17;3.00;3.00;2.00
51320;PMS5003;38732;49.556;6.286;2022-11-04T07:18:46;1.75;1.75;0.75
51320;PMS5003;38732;49.556;6.286;2022-11-04T07:21:14;1.75;1.75;1.75
51320;PMS5003;38732;49.556;6.286;2022-11-04T07:23:43;6.00;2.75;2.00
51320;PMS5003;38732;49.556;6.286;2022-11-04T07:26:11;4.75;2.50;1.00
51320;PMS5003;38732;49.556;6.286;2022-11-04T07:28:40;2.00;2.00;1.00
51320;PMS5003;38732;49.556;6.286;2022-11-04T07:31:10;5.00;4.80;2.00
51320;PMS5003;38732;49.556;6.286;2022-11-04T07:33:39;4.20;4.20;1.80
51320;PMS5003;38732;49.556;6.286;2022-11-04T07:36:10;2.25;2.25;1.00
51320;PMS5003;38732;49.556;6.286;2022-11-04T07:38:40;5.20;3.00;1.60
51320;PMS5003;38732;49.556;6.286;2022-11-04T07:41:09;2.00;2.00;1.25
51320;PMS5003;38732;49.556;6.286;2022-11-04T07:43:37;5.00;2.75;0.00
51320;PMS5003;38732;49.556;6.286;2022-11-04T07:46:06;6.00;4.00;2.00
51320;PMS5003;38732;49.556;6.286;2022-11-04T07:48:39;3.20;2.00;1.00
51320;PMS5003;38732;49.556;6.286;2022-11-04T07:51:08;2.00;2.00;1.00
51320;PMS5003;38732;49.556;6.286;2022-11-04T07:53:39;2.20;2.20;1.40
51320;PMS5003;38732;49.556;6.286;2022-11-04T07:56:09;3.00;3.00;2.00
51320;PMS5003;38732;49.556;6.286;2022-11-04T07:58:38;6.00;4.40;2.00
51320;PMS5003;38732;49.556;6.286;2022-11-04T08:01:08;6.60;3.20;1.80
51320;PMS5003;38732;49.556;6.286;2022-11-04T08:03:39;2.40;2.20;2.00
51320;PMS5003;38732;49.556;6.286;2022-11-04T08:06:08;3.00;2.50;2.00
51320;PMS5003;38732;49.556;6.286;2022-11-04T08:08:38;5.00;3.80;2.80
51320;PMS5003;38732;49.556;6.286;2022-11-04T08:11:08;6.25;5.00;3.00
51320;PMS5003;38732;49.556;6.286;2022-11-04T08:13:39;4.60;2.80;1.80
51320;PMS5003;38732;49.556;6.286;2022-11-04T08:16:11;6.00;6.00;1.50
51320;PMS5003;38732;49.556;6.286;2022-11-04T08:18:42;6.40;3.80;2.00
51320;PMS5003;38732;49.556;6.286;2022-11-04T08:21:11;2.80;2.00;0.00
51320;PMS5003;38732;49.556;6.286;2022-11-04T08:23:40;5.25;3.50;1.00
51320;PMS5003;38732;49.556;6.286;2022-11-04T08:26:09;3.25;3.25;2.25
51320;PMS5003;38732;49.556;6.286;2022-11-04T08:28:39;2.80;2.00;1.00
51320;PMS5003;38732;49.556;6.286;2022-11-04T08:33:42;4.20;2.80;1.00
51320;PMS5003;38732;49.556;6.286;2022-11-04T08:36:18;2.00;2.00;1.00
51320;PMS5003;38732;49.556;6.286;2022-11-04T08:38:57;12.40;5.00;1.00
51320;PMS5003;38732;49.556;6.286;2022-11-04T08:41:27;2.25;2.25;1.00
51320;PMS5003;38732;49.556;6.286;2022-11-04T08:43:57;3.40;2.80;1.20
51320;PMS5003;38732;49.556;6.286;2022-11-04T08:46:26;3.00;3.00;1.80
51320;PMS5003;38732;49.556;6.286;2022-11-04T08:48:55;4.80;3.80;1.40
51320;PMS5003;38732;49.556;6.286;2022-11-04T08:51:24;5.25;3.00;2.00
51320;PMS5003;38732;49.556;6.286;2022-11-04T08:53:54;3.00;3.00;1.20
51320;PMS5003;38732;49.556;6.286;2022-11-04T08:56:23;3.50;2.75;1.75
51320;PMS5003;38732;49.556;6.286;2022-11-04T08:58:52;5.20;2.20;2.00
51320;PMS5003;38732;49.556;6.286;2022-11-04T09:01:21;4.00;1.40;0.60
51320;PMS5003;38732;49.556;6.286;2022-11-04T09:03:49;5.75;5.75;2.00
51320;PMS5003;38732;49.556;6.286;2022-11-04T09:06:21;4.00;4.00;2.75
51320;PMS5003;38732;49.556;6.286;2022-11-04T09:08:54;8.80;6.80;4.00
51320;PMS5003;38732;49.556;6.286;2022-11-04T09:11:23;2.75;2.75;1.00
51320;PMS5003;38732;49.556;6.286;2022-11-04T09:13:51;5.75;4.00;2.00
51320;PMS5003;38732;49.556;6.286;2022-11-04T09:16:19;4.00;4.00;2.00
51320;PMS5003;38732;49.556;6.286;2022-11-04T09:18:47;4.00;4.00;2.00
51320;PMS5003;38732;49.556;6.286;2022-11-04T09:21:16;4.50;4.50;3.00
51320;PMS5003;38732;49.556;6.286;2022-11-04T09:23:44;5.25;5.25;3.00
51320;PMS5003;38732;49.556;6.286;2022-11-04T09:26:13;2.75;2.75;1.75
51320;PMS5003;38732;49.556;6.286;2022-11-04T09:28:42;5.60;5.20;3.00
51320;PMS5003;38732;49.556;6.286;2022-11-04T09:31:12;3.75;3.75;2.00
51320;PMS5003;38732;49.556;6.286;2022-11-04T09:33:42;4.20;4.20;2.00
51320;PMS5003;38732;49.556;6.286;2022-11-04T09:36:12;7.00;4.20;2.20
51320;PMS5003;38732;49.556;6.286;2022-11-04T09:38:40;4.50;4.00;2.25
51320;PMS5003;38732;49.556;6.286;2022-11-04T09:43:52;4.80;3.40;2.20
51320;PMS5003;38732;49.556;6.286;2022-11-04T09:47:03;3.80;3.80;3.00
51320;PMS5003;38732;49.556;6.286;2022-11-04T09:49:33;3.75;3.75;2.75
51320;PMS5003;38732;49.556;6.286;2022-11-04T09:52:06;2.00;2.00;1.00
51320;PMS5003;38732;49.556;6.286;2022-11-04T09:57:46;3.60;3.60;2.00
51320;PMS5003;38732;49.556;6.286;2022-11-04T10:00:21;5.20;4.40;2.40
51320;PMS5003;38732;49.556;6.286;2022-11-04T10:05:37;3.60;3.00;2.00
51320;PMS5003;38732;49.556;6.286;2022-11-04T10:25:07;5.60;3.40;2.20
51320;PMS5003;38732;49.556;6.286;2022-11-04T10:27:42;3.60;3.00;1.80
51320;PMS5003;38732;49.556;6.286;2022-11-04T10:30:14;3.40;3.40;1.80
51320;PMS5003;38732;49.556;6.286;2022-11-04T10:37:51;3.20;3.20;2.00
51320;PMS5003;38732;49.556;6.286;2022-11-04T10:40:31;3.40;2.00;1.00
51320;PMS5003;38732;49.556;6.286;2022-11-04T10:43:06;3.80;3.80;2.20
51320;PMS5003;38732;49.556;6.286;2022-11-04T10:46:23;4.80;3.00;2.00
51320;PMS5003;38732;49.556;6.286;2022-11-04T10:48:29;1.80;1.80;1.40
51320;PMS5003;38732;49.556;6.286;2022-11-04T10:51:07;2.40;2.40;1.00
51320;PMS5003;38732;49.556;6.286;2022-11-04T10:53:35;3.00;3.00;2.00
51320;PMS5003;38732;49.556;6.286;2022-11-04T10:56:11;3.00;3.00;1.50
51320;PMS5003;38732;49.556;6.286;2022-11-04T10:58:47;4.40;4.40;3.00
51320;PMS5003;38732;49.556;6.286;2022-11-04T11:03:55;2.20;2.00;1.00
51320;PMS5003;38732;49.556;6.286;2022-11-04T11:08:53;7.75;4.00;2.00
51320;PMS5003;38732;49.556;6.286;2022-11-04T11:14:04;4.20;3.00;2.00
51320;PMS5003;38732;49.556;6.286;2022-11-04T11:16:32;4.00;4.00;2.75
51320;PMS5003;38732;49.556;6.286;2022-11-04T11:19:07;6.00;3.50;2.00
51320;PMS5003;38732;49.556;6.286;2022-11-04T11:21:42;3.60;3.60;2.00
51320;PMS5003;38732;49.556;6.286;2022-11-04T11:24:13;3.00;2.40;1.40
51320;PMS5003;38732;49.556;6.286;2022-11-04T11:26:43;3.00;3.00;1.40
51320;PMS5003;38732;49.556;6.286;2022-11-04T11:29:11;2.00;2.00;1.50
51320;PMS5003;38732;49.556;6.286;2022-11-04T11:31:39;4.50;4.50;2.50
51320;PMS5003;38732;49.556;6.286;2022-11-04T11:34:14;2.75;2.75;2.00
51320;PMS5003;38732;49.556;6.286;2022-11-04T11:36:48;6.60;4.00;1.80
51320;PMS5003;38732;49.556;6.286;2022-11-04T11:39:21;6.40;4.40;2.00
51320;PMS5003;38732;49.556;6.286;2022-11-04T11:42:00;3.00;3.00;2.00
51320;PMS5003;38732;49.556;6.286;2022-11-04T11:47:20;3.20;2.00;1.00
51320;PMS5003;38732;49.556;6.286;2022-11-04T11:52:46;2.60;2.60;1.60
51320;PMS5003;38732;49.556;6.286;2022-11-04T11:55:29;2.80;2.80;2.00
51320;PMS5003;38732;49.556;6.286;2022-11-04T12:03:31;3.00;2.40;1.80
51320;PMS5003;38732;49.556;6.286;2022-11-04T12:08:55;1.00;1.00;1.00
51320;PMS5003;38732;49.556;6.286;2022-11-04T12:17:08;3.60;3.60;2.40
51320;PMS5003;38732;49.556;6.286;2022-11-04T12:33:45;2.60;2.60;1.20
51320;PMS5003;38732;49.556;6.286;2022-11-04T12:42:30;3.60;3.20;2.20
51320;PMS5003;38732;49.556;6.286;2022-11-04T12:47:50;3.00;2.40;1.40
51320;PMS5003;38732;49.556;6.286;2022-11-04T12:53:30;3.40;2.40;2.00
51320;PMS5003;38732;49.556;6.286;2022-11-04T13:01:20;3.00;3.00;2.00
51320;PMS5003;38732;49.556;6.286;2022-11-04T13:04:14;2.80;2.80;2.00
51320;PMS5003;38732;49.556;6.286;2022-11-04T13:07:30;3.40;3.00;2.00
51320;PMS5003;38732;49.556;6.286;2022-11-04T13:09:53;3.80;3.80;2.60
51320;PMS5003;38732;49.556;6.286;2022-11-04T13:12:45;4.00;4.00;2.00
51320;PMS5003;38732;49.556;6.286;2022-11-04T13:15:15;3.00;2.80;2.00
51320;PMS5003;38732;49.556;6.286;2022-11-04T13:17:58;4.00;3.00;2.00
51320;PMS5003;38732;49.556;6.286;2022-11-04T13:20:36;2.00;2.00;2.00
51320;PMS5003;38732;49.556;6.286;2022-11-04T13:23:15;1.40;1.40;1.00
51320;PMS5003;38732;49.556;6.286;2022-11-04T13:25:47;2.00;2.00;1.00
51320;PMS5003;38732;49.556;6.286;2022-11-04T13:28:18;5.20;3.60;2.40
51320;PMS5003;38732;49.556;6.286;2022-11-04T13:31:05;3.60;3.60;1.80
51320;PMS5003;38732;49.556;6.286;2022-11-04T13:33:59;5.20;3.60;2.00
51320;PMS5003;38732;49.556;6.286;2022-11-04T13:36:39;3.80;3.80;1.60
51320;PMS5003;38732;49.556;6.286;2022-11-04T13:39:20;4.60;4.60;2.60
51320;PMS5003;38732;49.556;6.286;2022-11-04T13:44:47;2.80;2.00;1.00
51320;PMS5003;38732;49.556;6.286;2022-11-04T13:47:20;2.40;2.40;2.00
51320;PMS5003;38732;49.556;6.286;2022-11-04T13:49:59;3.40;2.20;1.40
51320;PMS5003;38732;49.556;6.286;2022-11-04T13:52:31;2.25;2.25;2.00
51320;PMS5003;38732;49.556;6.286;2022-11-04T13:55:02;6.00;6.00;2.40
51320;PMS5003;38732;49.556;6.286;2022-11-04T13:57:47;3.20;3.20;2.20
51320;PMS5003;38732;49.556;6.286;2022-11-04T14:00:23;2.80;2.80;2.00
51320;PMS5003;38732;49.556;6.286;2022-11-04T14:16:01;2.00;1.00;0.60
51320;PMS5003;38732;49.556;6.286;2022-11-04T14:18:36;6.40;3.00;2.00
51320;PMS5003;38732;49.556;6.286;2022-11-04T14:21:14;3.20;2.60;1.00
51320;PMS5003;38732;49.556;6.286;2022-11-04T14:23:48;1.20;1.00;0.80
51320;PMS5003;38732;49.556;6.286;2022-11-04T14:26:19;2.00;2.00;1.00
51320;PMS5003;38732;49.556;6.286;2022-11-04T14:29:00;1.00;1.00;0.00
51320;PMS5003;38732;49.556;6.286;2022-11-04T14:31:51;0.80;0.80;0.00
51320;PMS5003;38732;49.556;6.286;2022-11-04T14:34:35;0.80;0.80;0.00
51320;PMS5003;38732;49.556;6.286;2022-11-04T14:39:54;2.00;2.00;1.00
51320;PMS5003;38732;49.556;6.286;2022-11-04T14:42:41;2.00;1.00;0.80
51320;PMS5003;38732;49.556;6.286;2022-11-04T14:45:23;1.00;1.00;1.00
51320;PMS5003;38732;49.556;6.286;2022-11-04T14:47:59;1.00;1.00;0.60
51320;PMS5003;38732;49.556;6.286;2022-11-04T14:50:41;1.80;1.80;1.00
51320;PMS5003;38732;49.556;6.286;2022-11-04T14:53:14;2.00;2.00;1.00
51320;PMS5003;38732;49.556;6.286;2022-11-04T15:01:24;2.40;2.40;1.80
51320;PMS5003;38732;49.556;6.286;2022-11-04T15:03:55;5.80;4.00;3.00
51320;PMS5003;38732;49.556;6.286;2022-11-04T15:06:30;3.00;2.00;1.00
51320;PMS5003;38732;49.556;6.286;2022-11-04T15:08:59;6.75;3.00;2.00
51320;PMS5003;38732;49.556;6.286;2022-11-04T15:11:28;2.50;2.50;1.75
51320;PMS5003;38732;49.556;6.286;2022-11-04T15:13:56;1.40;1.20;1.00
51320;PMS5003;38732;49.556;6.286;2022-11-04T15:16:26;3.60;2.60;1.60
51320;PMS5003;38732;49.556;6.286;2022-11-04T15:18:57;1.00;1.00;0.60
51320;PMS5003;38732;49.556;6.286;2022-11-04T15:21:26;1.60;1.60;1.00
51320;PMS5003;38732;49.556;6.286;2022-11-04T15:23:54;0.25;0.00;0.00
51320;PMS5003;38732;49.556;6.286;2022-11-04T15:26:30;5.50;3.00;1.50
51320;PMS5003;38732;49.556;6.286;2022-11-04T15:29:01;3.00;3.00;2.00
51320;PMS5003;38732;49.556;6.286;2022-11-04T15:31:37;2.80;2.80;1.80
51320;PMS5003;38732;49.556;6.286;2022-11-04T15:34:06;1.00;1.00;0.40
51320;PMS5003;38732;49.556;6.286;2022-11-04T15:36:38;2.80;2.80;1.40
51320;PMS5003;38732;49.556;6.286;2022-11-04T15:39:22;2.60;2.00;1.00
51320;PMS5003;38732;49.556;6.286;2022-11-04T15:41:54;2.60;2.60;1.00
51320;PMS5003;38732;49.556;6.286;2022-11-04T15:44:29;2.80;2.80;2.00
51320;PMS5003;38732;49.556;6.286;2022-11-04T15:47:03;3.00;2.00;1.00
51320;PMS5003;38732;49.556;6.286;2022-11-04T15:49:48;2.80;2.00;1.80
51320;PMS5003;38732;49.556;6.286;2022-11-04T15:52:25;3.60;3.60;1.00
51320;PMS5003;38732;49.556;6.286;2022-11-04T15:54:55;3.00;2.00;1.00
51320;PMS5003;38732;49.556;6.286;2022-11-04T15:57:31;3.40;3.00;1.00
51320;PMS5003;38732;49.556;6.286;2022-11-04T16:00:23;1.80;1.60;0.20
51320;PMS5003;38732;49.556;6.286;2022-11-04T16:02:52;2.00;2.00;1.00
51320;PMS5003;38732;49.556;6.286;2022-11-04T16:05:25;2.80;2.80;2.00
51320;PMS5003;38732;49.556;6.286;2022-11-04T16:08:13;2.20;2.20;1.60
51320;PMS5003;38732;49.556;6.286;2022-11-04T16:10:48;3.80;3.80;1.80
51320;PMS5003;38732;49.556;6.286;2022-11-04T16:13:21;4.40;2.60;2.00
51320;PMS5003;38732;49.556;6.286;2022-11-04T16:18:33;5.20;5.20;3.00
51320;PMS5003;38732;49.556;6.286;2022-11-04T16:23:42;5.40;5.20;2.20
51320;PMS5003;38732;49.556;6.286;2022-11-04T16:26:14;4.00;4.00;2.00
51320;PMS5003;38732;49.556;6.286;2022-11-04T16:28:42;5.50;3.75;2.00
51320;PMS5003;38732;49.556;6.286;2022-11-04T16:33:48;2.60;2.60;1.00
51320;PMS5003;38732;49.556;6.286;2022-11-04T16:36:18;5.60;2.80;1.00
51320;PMS5003;38732;49.556;6.286;2022-11-04T16:38:46;13.75;13.75;9.50
51320;PMS5003;38732;49.556;6.286;2022-11-04T16:41:26;5.00;3.80;2.20
51320;PMS5003;38732;49.556;6.286;2022-11-04T16:43:56;5.80;3.00;2.00
51320;PMS5003;38732;49.556;6.286;2022-11-04T16:46:25;6.60;4.80;2.00
51320;PMS5003;38732;49.556;6.286;2022-11-04T16:48:54;7.00;7.00;6.00
51320;PMS5003;38732;49.556;6.286;2022-11-04T16:51:22;5.50;5.50;3.00
51320;PMS5003;38732;49.556;6.286;2022-11-04T16:53:51;6.25;3.25;2.00
51320;PMS5003;38732;49.556;6.286;2022-11-04T16:56:21;5.00;3.40;1.80
51320;PMS5003;38732;49.556;6.286;2022-11-04T16:58:51;4.00;4.00;3.00
51320;PMS5003;38732;49.556;6.286;2022-11-04T17:01:20;8.25;6.75;3.00
51320;PMS5003;38732;49.556;6.286;2022-11-04T17:03:48;16.00;13.25;7.50
51320;PMS5003;38732;49.556;6.286;2022-11-04T17:06:16;10.25;8.75;6.00
51320;PMS5003;38732;49.556;6.286;2022-11-04T17:08:45;13.40;12.60;9.40
51320;PMS5003;38732;49.556;6.286;2022-11-04T17:11:15;13.40;13.40;9.80
51320;PMS5003;38732;49.556;6.286;2022-11-04T17:13:43;8.25;8.25;7.00
51320;PMS5003;38732;49.556;6.286;2022-11-04T17:16:12;7.75;7.75;6.00
51320;PMS5003;38732;49.556;6.286;2022-11-04T17:18:41;10.20;9.40;8.00
51320;PMS5003;38732;49.556;6.286;2022-11-04T17:21:10;17.25;17.25;13.75
51320;PMS5003;38732;49.556;6.286;2022-11-04T17:23:42;16.80;13.40;9.20
51320;PMS5003;38732;49.556;6.286;2022-11-04T17:26:11;13.40;12.20;8.00
51320;PMS5003;38732;49.556;6.286;2022-11-04T17:28:39;17.75;16.00;10.00
51320;PMS5003;38732;49.556;6.286;2022-11-04T17:31:09;28.50;22.75;13.25
51320;PMS5003;38732;49.556;6.286;2022-11-04T17:33:43;43.60;38.60;22.80
51320;PMS5003;38732;49.556;6.286;2022-11-04T17:36:13;33.25;30.50;18.50
51320;PMS5003;38732;49.556;6.286;2022-11-04T17:38:45;16.80;16.40;11.40
51320;PMS5003;38732;49.556;6.286;2022-11-04T17:41:13;14.80;14.80;8.20
51320;PMS5003;38732;49.556;6.286;2022-11-04T17:43:42;20.75;20.75;15.25